Airfield :
LOGIN :

Register | Disclaimer

   EN    FR    IT 

 










Legend :    VFR   Marginal VFR   IFR   Intensive IFR   Very Intensive IFR
Visi :
Ceiling :
>= 8 km
>= 3000ft
5 to 8 km
1000 to 3000 ft
1500m to 5 km
500 to 1000 ft
800 to 1500m
200 to 500 ft
< 800m
< 200 ft
Symbols :   Thunderstorms  Fog  Heavy snow  Heavy precipitations  Wind > 20 kt
SIGMETs :     Misc.  Thunderstorms  Icing  Turbulence  Mountain Waves  Volcanic Ashes







- Airport Elevation : 33 ft
- IATA code : MHZ


EGUN - RAF Mildenhall

CURRENT METAR :
  • 251259Z AUTO 17014G19KT 9999 FEW030 SCT038 SCT050 BKN190 16/10 A2950 RMK AO2 RAE58DZB58E59 SLP993 $

EXPIRED METARs :
  • 251248Z AUTO 17013KT 9999 -RA SCT031 SCT040 BKN050 BKN190 15/10 A2950 RMK AO2 RAB48 SLP993 $
  • 251236Z AUTO 17013G19KT 9999 FEW029 BKN040 BKN050 BKN190 14/11 A2949 RMK AO2 SLP990 $
  • 251156Z AUTO 17011KT 9999 FEW026 BKN100 BKN170 BKN200 14/13 A2948 RMK AO2 SLP986 60000 T01420131 10146 20104 52007 $
  • 251056Z AUTO 15010KT 9999 FEW026 SCT060 BKN090 13/13 A2948 RMK AO2 RAB27E37 SLP986 P0000 T01340132 .

TAF AMD TAF EGUN
Valid from the 25 at 13:00 until the 26 at 18:00 UTC


251303Z 2513/2618 16012G20KT 9000 -SHRA VCTS SCT060CB QNH2946INS
TEMPO 2514/2519 5000 -TSRA
BECMG 2518/2519 17012KT 9999 NSW BKN020 QNH2951INS
BECMG 2604/2605 18009KT 9999 BKN009 QNH2970INS
BECMG 2607/2608 20012KT 9999 BKN015 QNH2975INS
BECMG 2609/2610 19012KT 9999 SCT020 QNH2976INS TX16/2513Z TN06/2603Z
No reported NOTAMs for that airfield.



MET'MAP, your aeronautical weather chart ! - Copyright ORBIFLY December 2007 - Disclaimer

ORBIFLY MET'MAP TEAM :

Programming & Development : Alexandra Zaïnal
Concept & Development : Baudouin d'Aumeries
Co-Development & Prog : Marc-Olivier Méhu
Technical & hardware support : Manuel Goepfert

Contact : metmap@orbifly.com




SOURCES & CREDITS :

   NOAA